Skip Navigation Links
NOAA logo - Click to go to the NOAA homepage
NOAA's National Weather Service
Alaska Aviation Weather Unit
  NWS logo - Click to go to the NWS homepage
Left Navbar Graphic     21 AKDT = 05 GMT

   
NOAA is celebrating 200 years of science, service, and stewardship. Visit the NOAA 200th celebration Web site to learn more.
USA.gov is the U.S. Government's official Web portal to all Federal, state and local government Web resources and services.
Facebook
NWS on Facebook

AAWU Home :: Display TAF Add Bookmark
SPECI PPIZ 262323Z AUTO 06028KT 1/2SM SN VV010 M13/M16 A2996 RMK AO2
      PK WND 06031/2322 P0000 FZRANO TSNO=

SPECI PPIZ 262337Z AUTO 06026KT 3/4SM -SN VV009 M13/M16 A2996 RMK AO2
      PK WND 06031/2326 P0000 FZRANO TSNO=

SPECI PPIZ 262347Z AUTO 06027KT 1/2SM -SN FZFG BKN009 M13/M15 A2995 RMK
     AO2 PK WND 06031/2326 CIG 007V011 P0000 FZRANO TSNO=

METAR PPIZ 262356Z AUTO 06025KT 1/4SM -SN FZFG BKN009 M13/M15 A2995 RMK
     AO2 PK WND 06031/2326 CIG 004V013 SLP147 P0000 60000
     T11281150 11128 21156 58007 FZRANO TSNO=

SPECI PPIZ 270004Z AUTO 06027KT 1/2SM SN VV008 M13/M16 A2995 RMK AO2
      PK WND 06030/0004 P0000 FZRANO TSNO=

SPECI PPIZ 270027Z AUTO 06026KT 1/2SM -SN FZFG CLR M13/M16 A2995 RMK
      AO2 PK WND 06031/0018 P0000 FZRANO TSNO=

METAR PPIZ 270056Z AUTO 06029KT 1/2SM SN VV009 M13/M16 A2994 RMK AO2 PK
     WND 06033/0035 SLP144 P0000 T11281156 FZRANO TSNO=

SPECI PPIZ 270135Z AUTO 06029KT 1/2SM -SN FZFG VV011 M13/M15 A2994
      RMK AO2 PK WND 07031/0131 P0000 FZRANO TSNO=

METAR PPIZ 270156Z AUTO 06028KT 1/2SM SN CLR M13/M16 A2993 RMK AO2 PK
     WND 06032/0149 SLP140 P0000 T11281156 FZRANO TSNO=

SPECI PPIZ 270209Z AUTO 06024KT 1SM -SN BR CLR M13/M15 A2993 RMK AO2
      PK WND 06030/0159 P0000 FZRANO TSNO=

SPECI PPIZ 270221Z AUTO 06027KT 1/2SM -SN FZFG CLR M13/M15 A2993 RMK
      AO2 PK WND 06031/0216 P0000 FZRANO TSNO=

SPECI PPIZ 270229Z AUTO 06028KT 3/4SM -SN BR CLR M13/M15 A2993 RMK
      AO2 PK WND 05032/0229 P0000 FZRANO TSNO=

METAR PPIZ 270256Z AUTO 06028KT 3/4SM -SN BR CLR M13/M15 A2993 RMK AO2
     PK WND 05032/0229 SLP138 P0000 60000 T11281150 56009 FZRANO
     TSNO=

SPECI PPIZ 270339Z AUTO 06027KT 1SM -SN BR CLR M13/M15 A2992 RMK AO2
      PK WND 06031/0325 P0000 FZRANO TSNO=

METAR PPIZ 270356Z AUTO 06026KT 3/4SM -SN BR CLR M13/M15 A2993 RMK AO2
     PK WND 06031/0325 SLP138 P0000 T11281150 FZRANO TSNO=

SPECI PPIZ 270445Z AUTO 06026KT 1SM -SN BR CLR M13/M16 A2992 RMK AO2 PK
     WND 06033/0411 VIS 1/2V1 1/2 P0000 FZRANO TSNO=

METAR PPIZ 270456Z AUTO 06025KT 1SM -SN BR CLR M13/M16 A2992 RMK AO2
      PK WND 06033/0411 SLP137 P0000 T11331156 FZRANO TSNO=


NOAA's National Weather Service
Alaska Aviation Weather Unit
6930 Sand Lake Road
Anchorage, AK 99502-1845
Disclaimer
Credits
Glossary
Privacy Policy
About Us
Career Opportunities
Contact AAWU Internet Services Site last modified: April, 17th 2012